Alresford, United Kingdom
Current Conditions -  °F | °C
As of 2:50 AM on Monday 24 Nov 2014 (Local Time) from EGVO Reporting Station
Clear Clear  
Wind Chill: 34°   Ceiling: Unl
Heat Index: 37°   Visibility: 6mi
Dew Point: 36°   Wind: 5mph
Humidity: 93%   Direction: 280°W
Pressure: 30.21"   Gusts: NA
Location:  51.08°N, 1.14°W
Report Text: EGVO 240250Z 28004KT CAVOK 03/02 Q1023 BLU
Loading
Personal Weather Stations






























Interactive Weather Map New forecast layout! Learn more

10-Day Weather Forecast

Advertisements
Track Severe Weather on mobile